createdAt,value
2019-01-19T00:02:32.287Z,7.47
2019-01-19T00:05:25.388Z,6.97
2019-01-19T00:08:27.399Z,7.47
2019-01-19T00:11:31.298Z,7.70
2019-01-19T00:14:22.506Z,7.27
2019-01-19T00:17:17.505Z,7.07
2019-01-19T00:20:22.664Z,7.93
2019-01-19T00:23:26.537Z,7.63
2019-01-19T00:26:31.489Z,7.80
2019-01-19T00:29:14.164Z,8.10
2019-01-19T00:32:17.295Z,7.73
2019-01-19T00:35:03.045Z,7.20
2019-01-19T00:37:48.138Z,7.57
2019-01-19T00:40:44.041Z,9.40
2019-01-19T00:43:16.705Z,7.83
2019-01-19T00:46:19.059Z,7.20
2019-01-19T00:48:56.918Z,7.47
2019-01-19T00:51:46.507Z,7.23
2019-01-19T00:54:16.183Z,6.93
2019-01-19T00:56:47.125Z,6.97
2019-01-19T00:59:24.566Z,7.80
2019-01-19T01:02:21.876Z,6.83
2019-01-19T01:04:54.289Z,7.53
2019-01-19T01:07:39.969Z,7.47
2019-01-19T01:11:51.929Z,8.07
2019-01-19T01:14:38.710Z,7.90
2019-01-19T01:17:30.155Z,7.80
2019-01-19T01:20:41.105Z,6.53
2019-01-19T01:24:01.382Z,6.43
2019-01-19T01:27:16.473Z,8.63
2019-01-19T01:30:17.627Z,7.10
2019-01-19T01:33:08.199Z,7.93
2019-01-19T01:36:10.319Z,7.17
2019-01-19T01:39:34.521Z,7.80
2019-01-19T01:42:05.923Z,6.70
2019-01-19T01:45:01.336Z,7.17
2019-01-19T01:48:17.333Z,6.67
2019-01-19T01:50:54.447Z,7.30
2019-01-19T01:53:41.250Z,7.13
2019-01-19T01:56:12.475Z,7.07
2019-01-19T01:59:14.952Z,7.47
2019-01-19T02:02:07.899Z,7.60
2019-01-19T02:05:22.477Z,7.10
2019-01-19T02:08:33.303Z,6.30
2019-01-19T02:11:45.266Z,6.77
2019-01-19T02:14:40.366Z,7.03
2019-01-19T02:17:14.909Z,6.57
2019-01-19T02:20:42.359Z,5.97
2019-01-19T02:24:00.810Z,7.43
2019-01-19T02:26:45.544Z,7.73
2019-01-19T02:29:46.262Z,5.87
2019-01-19T02:32:52.893Z,5.87
2019-01-19T02:35:29.354Z,6.23
2019-01-19T02:38:38.602Z,6.37
2019-01-19T02:41:34.470Z,6.80
2019-01-19T02:44:39.505Z,6.73
2019-01-19T02:47:53.256Z,6.27
2019-01-19T02:50:39.150Z,6.10
2019-01-19T02:53:43.386Z,8.13
2019-01-19T02:56:39.382Z,6.60
2019-01-19T02:59:17.437Z,6.70
2019-01-19T03:02:07.323Z,7.17
2019-01-19T03:04:43.118Z,7.53
2019-01-19T03:07:39.442Z,7.10
2019-01-19T03:10:32.331Z,7.67
2019-01-19T03:13:35.090Z,7.10
2019-01-19T03:16:20.648Z,8.37
2019-01-19T03:19:02.268Z,7.27
2019-01-19T03:21:49.188Z,8.07
2019-01-19T03:25:00.321Z,7.40
2019-01-19T03:27:56.619Z,7.37
2019-01-19T03:30:40.999Z,7.07
2019-01-19T03:33:26.987Z,7.43
2019-01-19T03:36:23.602Z,8.23
2019-01-19T03:39:16.980Z,8.27
2019-01-19T03:42:10.326Z,8.70
2019-01-19T03:45:33.829Z,7.73
2019-01-19T03:48:37.504Z,8.17
2019-01-19T03:51:08.968Z,7.80
2019-01-19T03:53:48.299Z,7.90
2019-01-19T03:56:56.335Z,7.20
2019-01-19T04:00:01.543Z,8.53
2019-01-19T04:03:01.088Z,7.73
2019-01-19T04:05:57.740Z,6.97
2019-01-19T04:09:12.810Z,9.70
2019-01-19T04:11:45.482Z,8.03
2019-01-19T04:14:35.038Z,8.03
2019-01-19T04:18:03.747Z,10.73
2019-01-19T04:20:40.027Z,7.90
2019-01-19T04:23:07.413Z,7.40
2019-01-19T04:26:06.458Z,8.17
2019-01-19T04:28:33.892Z,7.83
2019-01-19T04:31:01.162Z,8.07
2019-01-19T04:33:28.528Z,9.47
2019-01-19T04:35:55.923Z,8.53
2019-01-19T04:38:23.267Z,8.30
2019-01-19T04:40:50.713Z,7.87
2019-01-19T04:43:18.150Z,8.50
2019-01-19T04:45:45.547Z,8.10
2019-01-19T04:48:13.374Z,8.27
2019-01-19T04:50:40.773Z,7.40
2019-01-19T04:53:08.095Z,8.27
2019-01-19T04:55:35.476Z,8.37
2019-01-19T04:58:02.803Z,8.70
2019-01-19T05:00:30.213Z,8.07
2019-01-19T05:02:57.528Z,7.87
2019-01-19T05:05:24.745Z,8.23
2019-01-19T05:07:52.075Z,7.90
2019-01-19T05:10:19.456Z,10.07
2019-01-19T05:12:46.732Z,8.63
2019-01-19T05:15:16.050Z,8.13
2019-01-19T05:17:44.070Z,7.70
2019-01-19T05:20:11.519Z,9.30
2019-01-19T05:22:38.937Z,9.10
2019-01-19T05:25:07.354Z,8.57
2019-01-19T05:27:34.723Z,9.20
2019-01-19T05:30:02.451Z,9.60
2019-01-19T05:32:30.624Z,8.90
2019-01-19T05:34:58.329Z,9.53
2019-01-19T05:37:25.700Z,8.70
2019-01-19T05:39:53.057Z,8.23
2019-01-19T05:42:20.262Z,8.20
2019-01-19T05:44:47.563Z,8.90
2019-01-19T05:47:14.870Z,8.20
2019-01-19T05:49:42.232Z,9.43
2019-01-19T05:52:09.512Z,8.83
2019-01-19T05:54:36.806Z,9.37
2019-01-19T05:57:04.158Z,8.47
2019-01-19T05:59:31.446Z,8.37
2019-01-19T06:01:58.942Z,9.23
2019-01-19T06:04:26.268Z,10.13
2019-01-19T06:06:53.614Z,8.83
2019-01-19T06:09:20.980Z,9.93
2019-01-19T06:11:48.307Z,8.70
2019-01-19T06:14:15.588Z,9.33
2019-01-19T06:16:42.961Z,10.73
2019-01-19T06:19:10.597Z,9.83
2019-01-19T06:21:47.373Z,9.20
2019-01-19T06:24:14.804Z,9.07
2019-01-19T06:26:42.196Z,9.63
2019-01-19T06:29:09.597Z,9.70
2019-01-19T06:31:37.019Z,10.57
2019-01-19T06:34:04.506Z,9.40
2019-01-19T06:36:32.008Z,9.13
2019-01-19T06:38:59.446Z,9.37
2019-01-19T06:41:26.738Z,8.77
2019-01-19T06:43:54.092Z,9.47
2019-01-19T06:46:21.390Z,10.40
2019-01-19T06:48:50.631Z,10.37
2019-01-19T06:51:18.029Z,10.53
2019-01-19T06:53:46.303Z,9.83
2019-01-19T06:56:13.682Z,9.00
2019-01-19T07:01:28.202Z,9.97
2019-01-19T07:03:55.664Z,9.23
2019-01-19T07:06:23.113Z,9.17
2019-01-19T07:08:50.576Z,10.30
2019-01-19T07:11:17.993Z,9.90
2019-01-19T07:13:45.339Z,9.87
2019-01-19T07:16:13.679Z,10.77
2019-01-19T07:18:41.019Z,10.27
2019-01-19T07:21:08.337Z,11.33
2019-01-19T07:23:35.847Z,11.00
2019-01-19T07:26:03.329Z,9.13
2019-01-19T07:28:30.830Z,9.60
2019-01-19T07:30:58.144Z,8.97
2019-01-19T07:33:25.579Z,9.50
2019-01-19T07:35:52.948Z,9.20
2019-01-19T07:38:20.323Z,8.83
2019-01-19T07:40:47.739Z,9.77
2019-01-19T07:43:15.733Z,10.13
2019-01-19T07:45:43.109Z,10.13
2019-01-19T07:48:10.975Z,10.50
2019-01-19T07:50:38.909Z,9.67
2019-01-19T07:53:07.156Z,10.27
2019-01-19T07:55:34.529Z,10.20
2019-01-19T07:58:01.884Z,9.87
2019-01-19T08:00:30.425Z,9.70
2019-01-19T08:02:57.684Z,9.43
2019-01-19T08:05:25.446Z,10.37
2019-01-19T08:07:52.872Z,10.07
2019-01-19T08:10:20.429Z,9.60
2019-01-19T08:12:47.935Z,9.33
2019-01-19T08:15:17.139Z,9.37
2019-01-19T08:17:44.855Z,9.53
2019-01-19T08:20:12.519Z,9.07
2019-01-19T08:22:39.950Z,10.33
2019-01-19T08:25:08.176Z,9.53
2019-01-19T08:27:35.611Z,9.17
2019-01-19T08:30:04.779Z,9.30
2019-01-19T08:32:32.211Z,8.83
2019-01-19T08:34:59.646Z,10.30
2019-01-19T08:37:27.084Z,10.23
2019-01-19T08:39:54.624Z,9.87
2019-01-19T08:42:22.028Z,10.27
2019-01-19T08:44:49.472Z,10.67
2019-01-19T08:47:18.346Z,10.07
2019-01-19T08:49:45.785Z,10.93
2019-01-19T08:52:13.200Z,10.03
2019-01-19T08:54:40.648Z,11.03
2019-01-19T08:57:08.292Z,11.00
2019-01-19T08:59:35.744Z,10.17
2019-01-19T09:02:03.379Z,9.67
2019-01-19T09:04:30.805Z,10.23
2019-01-19T09:06:58.310Z,11.17
2019-01-19T09:09:25.722Z,9.73
2019-01-19T09:11:53.146Z,11.10
2019-01-19T09:14:20.530Z,10.43
2019-01-19T09:16:47.875Z,10.47
2019-01-19T09:19:15.184Z,11.33
2019-01-19T09:21:43.747Z,12.00
2019-01-19T09:24:22.560Z,11.07
2019-01-19T09:26:49.782Z,10.97
2019-01-19T09:29:17.160Z,10.93
2019-01-19T09:31:44.855Z,11.23
2019-01-19T09:34:12.395Z,9.63
2019-01-19T09:36:40.310Z,9.73
2019-01-19T09:39:11.156Z,9.93
2019-01-19T09:41:38.363Z,10.43
2019-01-19T09:44:05.846Z,10.07
2019-01-19T09:46:33.376Z,10.43
2019-01-19T09:49:01.513Z,9.40
2019-01-19T09:51:28.796Z,10.37
2019-01-19T09:53:56.221Z,9.63
2019-01-19T09:56:23.584Z,9.63
2019-01-19T09:58:51.009Z,9.30
2019-01-19T10:01:18.377Z,10.20
2019-01-19T10:03:45.746Z,9.97
2019-01-19T10:06:13.095Z,10.63
2019-01-19T10:08:40.538Z,10.10
2019-01-19T10:11:08.375Z,10.07
2019-01-19T10:13:35.753Z,9.43
2019-01-19T10:16:03.319Z,9.37
2019-01-19T10:18:30.757Z,10.40
2019-01-19T10:20:59.151Z,9.03
2019-01-19T10:23:26.498Z,10.10
2019-01-19T10:25:53.980Z,10.60
2019-01-19T10:28:21.389Z,10.30
2019-01-19T10:30:48.794Z,9.53
2019-01-19T10:33:16.179Z,9.07
2019-01-19T10:35:44.309Z,10.83
2019-01-19T10:38:11.669Z,8.37
2019-01-19T10:40:39.118Z,8.50
2019-01-19T10:43:07.605Z,8.70
2019-01-19T10:45:34.974Z,9.43
2019-01-19T10:48:02.470Z,8.97
2019-01-19T10:50:29.886Z,8.50
2019-01-19T10:52:57.988Z,7.80
2019-01-19T10:55:25.509Z,7.80
2019-01-19T10:57:53.060Z,8.33
2019-01-19T11:00:23.133Z,9.17
2019-01-19T11:02:50.504Z,8.47
2019-01-19T11:05:17.877Z,8.27
2019-01-19T11:07:47.745Z,9.70
2019-01-19T11:10:21.075Z,8.83
2019-01-19T11:12:51.785Z,8.67
2019-01-19T11:15:25.148Z,8.93
2019-01-19T11:17:52.991Z,8.13
2019-01-19T11:20:25.656Z,7.87
2019-01-19T11:22:54.347Z,8.13
2019-01-19T11:25:22.030Z,8.30
2019-01-19T11:27:49.575Z,8.00
2019-01-19T11:30:22.145Z,8.37
2019-01-19T11:32:49.656Z,8.57
2019-01-19T11:35:17.676Z,8.37
2019-01-19T11:37:45.148Z,7.90
2019-01-19T11:40:15.050Z,8.00
2019-01-19T11:42:42.462Z,7.60
2019-01-19T11:45:13.108Z,7.43
2019-01-19T11:47:40.488Z,8.70
2019-01-19T11:50:08.167Z,7.13
2019-01-19T11:52:35.598Z,7.77
2019-01-19T11:55:04.501Z,7.90
2019-01-19T11:57:31.875Z,7.23
2019-01-19T11:59:59.371Z,8.20
2019-01-19T12:02:27.026Z,8.00
2019-01-19T12:04:54.413Z,8.43
2019-01-19T12:07:21.826Z,7.37
2019-01-19T12:09:49.257Z,7.67
2019-01-19T12:12:16.700Z,7.60
2019-01-19T12:14:44.040Z,7.57
2019-01-19T12:17:11.464Z,7.97
2019-01-19T12:19:38.866Z,7.67
2019-01-19T12:22:06.356Z,8.03
2019-01-19T12:24:33.808Z,8.07
2019-01-19T12:27:01.414Z,7.03
2019-01-19T12:29:28.907Z,8.17
2019-01-19T12:31:56.263Z,7.50
2019-01-19T12:34:25.586Z,7.40
2019-01-19T12:36:52.998Z,7.20
2019-01-19T12:39:20.496Z,7.97
2019-01-19T12:41:47.983Z,7.93
2019-01-19T12:44:15.537Z,8.20
2019-01-19T12:47:02.582Z,8.33
2019-01-19T12:49:29.990Z,8.67
2019-01-19T12:51:57.959Z,8.10
2019-01-19T12:54:25.454Z,8.00
2019-01-19T12:56:53.632Z,8.17
2019-01-19T12:59:21.295Z,8.07
2019-01-19T13:01:48.763Z,8.30
2019-01-19T13:04:16.224Z,8.70
2019-01-19T13:07:05.645Z,8.33
2019-01-19T13:09:45.743Z,9.27
2019-01-19T13:12:27.120Z,9.20
2019-01-19T13:15:30.157Z,8.73
2019-01-19T13:18:35.207Z,9.17
2019-01-19T13:21:52.551Z,7.80
2019-01-19T13:24:51.690Z,9.30
2019-01-19T13:28:16.085Z,9.10
2019-01-19T13:31:18.662Z,8.70
2019-01-19T13:34:42.727Z,8.70
2019-01-19T13:37:40.441Z,9.63
2019-01-19T13:40:47.756Z,8.63
2019-01-19T13:43:33.285Z,8.80
2019-01-19T13:46:32.175Z,9.57
2019-01-19T13:49:37.577Z,9.00
2019-01-19T13:52:15.866Z,9.27
2019-01-19T13:55:23.917Z,7.53
2019-01-19T13:58:22.146Z,7.50
2019-01-19T14:01:49.276Z,7.73
2019-01-19T14:04:40.287Z,7.97
2019-01-19T14:07:23.053Z,7.63
2019-01-19T14:10:31.662Z,7.27
2019-01-19T14:13:30.025Z,8.63
2019-01-19T14:16:29.725Z,8.07
2019-01-19T14:19:28.752Z,8.20
2019-01-19T14:22:46.040Z,8.47
2019-01-19T14:25:45.142Z,8.10
2019-01-19T14:28:43.015Z,7.00
2019-01-19T14:31:48.692Z,7.07
2019-01-19T14:34:45.561Z,7.50
2019-01-19T14:37:50.620Z,7.30
2019-01-19T14:40:53.318Z,6.20
2019-01-19T14:44:02.820Z,6.60
2019-01-19T14:46:41.498Z,6.90
2019-01-19T14:49:30.814Z,6.53
2019-01-19T14:52:25.406Z,6.53
2019-01-19T14:55:25.078Z,5.93
2019-01-19T14:58:52.650Z,5.57
2019-01-19T15:01:42.463Z,6.20
2019-01-19T15:04:41.304Z,6.77
2019-01-19T15:07:34.458Z,5.83
2019-01-19T15:10:17.806Z,6.53
2019-01-19T15:13:16.250Z,6.30
2019-01-19T15:16:08.996Z,6.20
2019-01-19T15:19:14.070Z,5.40
2019-01-19T15:21:56.517Z,7.53
2019-01-19T15:24:36.146Z,5.80
2019-01-19T15:27:26.185Z,5.43
2019-01-19T15:30:31.342Z,6.17
2019-01-19T15:33:51.289Z,6.60
2019-01-19T15:36:52.827Z,5.27
2019-01-19T15:40:01.406Z,6.77
2019-01-19T15:42:52.436Z,6.93
2019-01-19T15:46:09.527Z,5.63
2019-01-19T15:49:20.750Z,6.00
2019-01-19T15:52:25.797Z,6.13
2019-01-19T15:55:08.651Z,6.03
2019-01-19T15:58:20.764Z,5.93
2019-01-19T16:01:31.559Z,5.20
2019-01-19T16:04:43.920Z,5.60
2019-01-19T16:07:49.218Z,6.50
2019-01-19T16:10:56.754Z,5.30
2019-01-19T16:14:07.688Z,6.03
2019-01-19T16:17:17.067Z,6.93
2019-01-19T16:19:55.628Z,6.03
2019-01-19T16:22:48.871Z,5.57
2019-01-19T16:26:28.362Z,6.23
2019-01-19T16:29:54.261Z,7.63
2019-01-19T16:32:55.778Z,6.23
2019-01-19T16:35:39.895Z,6.10
2019-01-19T16:38:47.651Z,6.20
2019-01-19T16:41:47.194Z,6.83
2019-01-19T16:45:00.243Z,7.30
2019-01-19T16:48:09.315Z,7.73
2019-01-19T16:51:27.966Z,5.90
2019-01-19T16:54:47.961Z,6.77
2019-01-19T16:57:33.719Z,8.30
2019-01-19T17:00:35.538Z,6.50
2019-01-19T17:03:15.121Z,7.13
2019-01-19T17:06:13.971Z,8.43
2019-01-19T17:09:13.117Z,8.77
2019-01-19T17:12:19.677Z,9.43
2019-01-19T17:15:22.118Z,7.77
2019-01-19T17:18:09.023Z,8.37
2019-01-19T17:21:27.198Z,8.53
2019-01-19T17:24:44.993Z,7.67
2019-01-19T17:27:39.215Z,7.80
2019-01-19T17:30:32.310Z,7.07
2019-01-19T17:33:13.933Z,9.17
2019-01-19T17:36:13.970Z,8.37
2019-01-19T17:39:32.419Z,7.60
2019-01-19T17:42:25.315Z,8.50
2019-01-19T17:45:15.541Z,9.70
2019-01-19T17:48:20.531Z,8.13
2019-01-19T17:51:19.880Z,9.77
2019-01-19T17:54:03.456Z,8.07
2019-01-19T17:57:12.804Z,8.50
2019-01-19T18:00:18.271Z,9.87
2019-01-19T18:03:37.365Z,8.83
2019-01-19T18:06:30.944Z,9.13
2019-01-19T18:09:28.240Z,9.13
2019-01-19T18:12:17.414Z,9.30
2019-01-19T18:15:38.562Z,9.57
2019-01-19T18:18:49.390Z,10.13
2019-01-19T18:22:08.842Z,8.97
2019-01-19T18:25:01.944Z,8.03
2019-01-19T18:28:10.312Z,8.93
2019-01-19T18:31:03.331Z,9.73
2019-01-19T18:34:12.547Z,9.57
2019-01-19T18:37:09.691Z,8.83
2019-01-19T18:39:55.192Z,8.80
2019-01-19T18:43:12.925Z,8.87
2019-01-19T18:46:11.970Z,9.90
2019-01-19T18:49:20.335Z,8.77
2019-01-19T18:52:25.912Z,10.03
2019-01-19T18:55:56.573Z,8.93
2019-01-19T18:59:04.415Z,8.50
2019-01-19T19:02:02.969Z,9.07
2019-01-19T19:04:55.992Z,9.67
2019-01-19T19:07:51.804Z,8.83
2019-01-19T19:11:04.274Z,9.23
2019-01-19T19:14:24.092Z,9.30
2019-01-19T19:17:33.032Z,9.47
2019-01-19T19:20:54.175Z,8.03
2019-01-19T19:24:51.396Z,12.53
2019-01-19T19:27:55.154Z,9.67
2019-01-19T19:30:33.858Z,8.10
2019-01-19T19:33:41.516Z,8.20
2019-01-19T19:37:04.764Z,8.60
2019-01-19T19:39:36.141Z,9.00
2019-01-19T19:42:41.475Z,8.80
2019-01-19T19:45:39.658Z,10.50
2019-01-19T19:48:27.135Z,9.73
2019-01-19T19:54:08.600Z,9.63
2019-01-19T19:56:35.133Z,8.83
2019-01-19T19:59:02.607Z,9.77
2019-01-19T20:01:30.079Z,9.40
2019-01-19T20:03:57.871Z,9.00
2019-01-19T20:06:25.529Z,10.13
2019-01-19T20:08:53.181Z,9.70
2019-01-19T20:11:20.708Z,9.03
2019-01-19T20:13:48.590Z,9.90
2019-01-19T20:16:16.439Z,9.97
2019-01-19T20:18:43.949Z,10.20
2019-01-19T20:21:11.618Z,9.07
2019-01-19T20:23:39.155Z,10.90
2019-01-19T20:26:06.853Z,9.80
2019-01-19T20:28:34.882Z,10.60
2019-01-19T20:31:02.605Z,10.33
2019-01-19T20:33:31.691Z,12.10
2019-01-19T20:35:59.598Z,10.30
2019-01-19T20:38:26.961Z,10.90
2019-01-19T20:40:54.511Z,9.53
2019-01-19T20:43:21.979Z,10.17
2019-01-19T20:45:49.359Z,10.10
2019-01-19T20:48:17.113Z,9.63
2019-01-19T20:50:44.569Z,10.73
2019-01-19T20:53:12.579Z,10.77
2019-01-19T20:55:40.277Z,10.00
2019-01-19T20:58:07.775Z,10.57
2019-01-19T21:00:35.199Z,10.53
2019-01-19T21:03:02.963Z,11.27
2019-01-19T21:05:30.603Z,10.73
2019-01-19T21:07:58.651Z,12.70
2019-01-19T21:10:31.772Z,10.93
2019-01-19T21:12:55.478Z,10.00
2019-01-19T21:15:24.639Z,11.10
2019-01-19T21:17:55.888Z,10.50
2019-01-19T21:20:22.044Z,10.47
2019-01-19T21:22:49.895Z,11.10
2019-01-19T21:25:17.342Z,11.30
2019-01-19T21:27:45.513Z,11.13
2019-01-19T21:30:15.501Z,11.10
2019-01-19T21:33:22.468Z,11.37
2019-01-19T21:35:50.615Z,13.77
2019-01-19T21:38:18.077Z,12.40
2019-01-19T21:40:45.885Z,13.57
2019-01-19T21:43:13.396Z,13.23
2019-01-19T21:45:41.069Z,13.20
2019-01-19T21:48:08.660Z,13.17
2019-01-19T21:50:36.359Z,14.50
2019-01-19T21:53:04.126Z,13.50
2019-01-19T21:55:31.779Z,12.83
2019-01-19T21:57:59.335Z,11.80
2019-01-19T22:00:27.257Z,12.30
2019-01-19T22:02:54.979Z,11.93
2019-01-19T22:05:22.651Z,12.17
2019-01-19T22:07:50.474Z,12.03
2019-01-19T22:10:18.187Z,11.53
2019-01-19T22:12:45.836Z,12.20
2019-01-19T22:15:15.438Z,10.83
2019-01-19T22:17:42.894Z,10.93
2019-01-19T22:20:12.945Z,11.23
2019-01-19T22:22:40.434Z,12.17
2019-01-19T22:25:07.958Z,11.03
2019-01-19T22:27:40.018Z,11.23
2019-01-19T22:30:11.678Z,12.17
2019-01-19T22:32:39.112Z,11.60
2019-01-19T22:35:08.127Z,10.90
2019-01-19T22:37:35.550Z,11.87
2019-01-19T22:40:03.963Z,10.90
2019-01-19T22:42:31.543Z,11.37
2019-01-19T22:44:58.977Z,10.97
2019-01-19T22:47:26.398Z,11.00
2019-01-19T22:49:53.926Z,11.83
2019-01-19T22:52:21.558Z,13.10
2019-01-19T22:54:51.322Z,11.97
2019-01-19T22:57:18.763Z,10.87
2019-01-19T22:59:46.223Z,11.50
2019-01-19T23:02:13.711Z,11.07
2019-01-19T23:04:41.430Z,11.43
2019-01-19T23:07:09.093Z,12.07
2019-01-19T23:09:36.658Z,11.87
2019-01-19T23:12:04.501Z,12.17
2019-01-19T23:14:32.562Z,11.90
2019-01-19T23:16:59.982Z,11.53
2019-01-19T23:19:27.386Z,12.10
2019-01-19T23:21:57.628Z,12.07
2019-01-19T23:24:25.085Z,12.67
2019-01-19T23:26:56.699Z,12.20
2019-01-19T23:29:24.101Z,11.23
2019-01-19T23:31:51.435Z,10.90
2019-01-19T23:34:18.782Z,10.30
2019-01-19T23:36:46.350Z,10.50
2019-01-19T23:39:13.757Z,10.37
2019-01-19T23:41:41.134Z,10.57
2019-01-19T23:44:08.778Z,10.77
2019-01-19T23:46:36.250Z,9.47
2019-01-19T23:49:03.676Z,10.63
2019-01-19T23:51:31.202Z,10.20
2019-01-19T23:53:58.623Z,10.37
2019-01-19T23:56:28.025Z,11.43
2019-01-19T23:58:55.491Z,11.33
